Time;durP1;ratioP1;P1;durP2;ratioP2;P2;SDS_P1;SDS_P2;PMS_P1;PMS_P2;Temp;Humidity;BMP_temperature;BMP_pressure;BME280_temperature;BME280_humidity;BME280_pressure;Samples;Min_cycle;Max_cycle;Signal;HPM_P1;HPM_P2
2021/11/20 00:19:20;;;;;;;1.65;1.55;;;;;;;;;;4505191;28;20124;-66
2021/11/20 00:22:20;;;;;;;1.08;1.05;;;;;;;;;;4212272;33;20505;-66
2021/11/20 00:24:51;;;;;;;1.00;1.00;;;;;;;;;;4222866;33;20193;-66
2021/11/20 00:27:21;;;;;;;1.30;1.20;;;;;;;;;;4205455;34;20094;-65
2021/11/20 00:29:59;;;;;;;1.33;1.20;;;;;;;;;;4231910;33;20133;-74
2021/11/20 00:32:27;;;;;;;1.30;1.20;;;;;;;;;;4220521;33;20175;-66
2021/11/20 00:34:55;;;;;;;1.00;1.00;;;;;;;;;;4219157;33;20613;-67
2021/11/20 00:37:21;;;;;;;1.20;1.10;;;;;;;;;;4224045;33;20454;-67
2021/11/20 00:39:46;;;;;;;1.40;1.30;;;;;;;;;;4217945;34;20223;-68
2021/11/20 00:42:12;;;;;;;1.60;1.20;;;;;;;;;;4218099;34;20128;-68
2021/11/20 00:44:39;;;;;;;1.30;1.20;;;;;;;;;;4218039;34;20521;-67
2021/11/20 00:47:05;;;;;;;1.48;1.30;;;;;;;;;;4218967;34;20105;-68
2021/11/20 00:49:31;;;;;;;1.50;1.23;;;;;;;;;;4220370;34;20176;-68
2021/11/20 00:51:57;;;;;;;1.20;1.10;;;;;;;;;;4220073;34;20125;-67
2021/11/20 00:54:23;;;;;;;1.10;1.10;;;;;;;;;;4227865;33;20125;-75
2021/11/20 00:56:49;;;;;;;1.20;1.20;;;;;;;;;;4209610;33;20108;-75
2021/11/20 00:59:15;;;;;;;1.48;1.15;;;;;;;;;;4220941;33;20109;-75
2021/11/20 01:01:53;;;;;;;1.30;1.20;;;;;;;;;;4197971;33;20465;-75
2021/11/20 01:04:19;;;;;;;1.12;1.12;;;;;;;;;;4221290;33;20109;-75
2021/11/20 01:06:45;;;;;;;1.12;1.02;;;;;;;;;;4234236;33;20112;-75
2021/11/20 01:09:13;;;;;;;1.15;1.15;;;;;;;;;;4209521;33;20094;-74
2021/11/20 01:11:42;;;;;;;1.00;1.00;;;;;;;;;;4220900;33;20240;-74
2021/11/20 01:14:09;;;;;;;1.00;1.00;;;;;;;;;;4209457;33;20269;-75
2021/11/20 01:16:35;;;;;;;1.10;1.08;;;;;;;;;;4221070;33;20136;-75
2021/11/20 01:19:02;;;;;;;1.23;1.17;;;;;;;;;;4209640;33;20513;-75
2021/11/20 01:21:28;;;;;;;1.02;1.00;;;;;;;;;;4186782;34;20177;-75
2021/11/20 01:23:54;;;;;;;1.17;1.12;;;;;;;;;;4181477;34;20255;-75
2021/11/20 01:26:20;;;;;;;1.10;1.10;;;;;;;;;;4192127;34;20117;-75
2021/11/20 01:28:49;;;;;;;1.00;1.00;;;;;;;;;;4193286;34;20463;-75
2021/11/20 01:31:16;;;;;;;1.10;1.00;;;;;;;;;;4182163;34;20097;-75
2021/11/20 01:33:43;;;;;;;1.12;1.12;;;;;;;;;;4193107;34;20124;-76
2021/11/20 01:36:10;;;;;;;1.35;1.25;;;;;;;;;;4181583;34;20113;-75
2021/11/20 01:38:36;;;;;;;1.02;1.02;;;;;;;;;;4192950;34;20665;-76
2021/11/20 01:41:02;;;;;;;1.10;1.10;;;;;;;;;;4181530;34;20171;-76
2021/11/20 01:43:28;;;;;;;1.00;1.00;;;;;;;;;;4181600;34;20109;-75
2021/11/20 01:45:58;;;;;;;1.20;1.10;;;;;;;;;;4192644;34;20229;-75
2021/11/20 01:48:40;;;;;;;1.15;1.15;;;;;;;;;;4193153;34;20105;-75
2021/11/20 01:51:12;;;;;;;0.88;0.88;;;;;;;;;;4193050;34;20135;-75
2021/11/20 01:54:04;;;;;;;1.05;1.05;;;;;;;;;;4205963;34;20112;-75
2021/11/20 01:56:51;;;;;;;1.00;1.00;;;;;;;;;;4185386;34;20102;-74
2021/11/20 01:59:25;;;;;;;1.10;1.10;;;;;;;;;;4208300;34;20098;-75
2021/11/20 02:02:01;;;;;;;1.00;1.00;;;;;;;;;;4206619;34;20106;-75
2021/11/20 02:04:47;;;;;;;1.10;1.10;;;;;;;;;;4206560;34;20141;-74
2021/11/20 02:07:19;;;;;;;;;;;;;;;;;;4195613;34;20136;-74
2021/11/20 02:10:02;;;;;;;1.50;1.40;;;;;;;;;;4206443;34;20064;-74
2021/11/20 02:12:34;;;;;;;1.40;1.30;;;;;;;;;;4206759;34;20120;-73
2021/11/20 02:15:01;;;;;;;1.27;1.20;;;;;;;;;;4206611;34;20133;-74
2021/11/20 02:17:50;;;;;;;1.20;1.20;;;;;;;;;;4195302;34;20226;-74
2021/11/20 02:20:22;;;;;;;1.33;1.30;;;;;;;;;;4196130;34;20540;-74
2021/11/20 02:22:47;;;;;;;1.20;1.20;;;;;;;;;;4206553;34;20208;-74
2021/11/20 02:25:13;;;;;;;1.40;1.30;;;;;;;;;;4206376;34;20141;-74
2021/11/20 02:27:44;;;;;;;1.60;1.50;;;;;;;;;;4219226;34;20113;-73
2021/11/20 02:30:30;;;;;;;1.30;1.20;;;;;;;;;;4206561;34;20097;-73
2021/11/20 02:32:57;;;;;;;;;;;;;;;;;;4208772;34;20200;-74
2021/11/20 02:35:26;;;;;;;1.50;1.40;;;;;;;;;;4219141;34;20011;-73
2021/11/20 02:37:52;;;;;;;1.40;1.23;;;;;;;;;;4206174;34;20309;-74
2021/11/20 02:40:18;;;;;;;1.67;1.58;;;;;;;;;;4219037;34;20116;-73
2021/11/20 02:42:45;;;;;;;1.85;1.75;;;;;;;;;;4219085;34;20148;-74
2021/11/20 02:45:25;;;;;;;1.80;1.70;;;;;;;;;;4194744;34;20117;-73
2021/11/20 02:47:52;;;;;;;2.00;1.70;;;;;;;;;;4195126;34;20133;-73
2021/11/20 02:50:48;;;;;;;1.98;1.60;;;;;;;;;;4205982;34;20506;-74
2021/11/20 02:53:16;;;;;;;;;;;;;;;;;;4208716;34;20101;-74
2021/11/20 02:55:47;;;;;;;1.77;1.67;;;;;;;;;;4219001;34;20001;-73
2021/11/20 02:58:13;;;;;;;2.47;2.17;;;;;;;;;;4206270;34;20120;-74
2021/11/20 03:00:39;;;;;;;3.17;2.00;;;;;;;;;;4206324;34;20086;-75
2021/11/20 03:03:04;;;;;;;4.37;2.45;;;;;;;;;;4219334;34;20137;-75
2021/11/20 03:05:30;;;;;;;2.05;1.95;;;;;;;;;;4218884;34;20116;-74
2021/11/20 03:07:56;;;;;;;2.35;2.00;;;;;;;;;;4206039;34;20140;-74
2021/11/20 03:10:22;;;;;;;2.40;1.92;;;;;;;;;;4205175;34;20087;-75
2021/11/20 03:12:48;;;;;;;2.30;2.10;;;;;;;;;;4218979;34;20121;-74
2021/11/20 03:15:14;;;;;;;2.25;1.92;;;;;;;;;;4205946;34;20136;-74
2021/11/20 03:17:40;;;;;;;2.62;2.10;;;;;;;;;;4218888;34;20101;-74
2021/11/20 03:20:08;;;;;;;2.70;2.03;;;;;;;;;;4206088;34;20139;-74
2021/11/20 03:22:45;;;;;;;3.05;2.22;;;;;;;;;;4206072;34;20101;-75
2021/11/20 03:25:11;;;;;;;3.72;2.03;;;;;;;;;;4206712;34;20169;-75
2021/11/20 03:27:36;;;;;;;2.58;1.92;;;;;;;;;;4205472;34;20109;-74
2021/11/20 03:30:04;;;;;;;2.30;2.10;;;;;;;;;;4205637;34;20133;-75
2021/11/20 03:32:30;;;;;;;3.92;2.42;;;;;;;;;;4194285;34;20133;-75
2021/11/20 03:34:55;;;;;;;2.75;2.05;;;;;;;;;;4182694;34;20569;-73
2021/11/20 03:37:23;;;;;;;3.05;2.20;;;;;;;;;;4218801;34;20094;-74
2021/11/20 03:39:50;;;;;;;2.05;1.85;;;;;;;;;;4194237;34;20124;-73
2021/11/20 03:42:16;;;;;;;2.30;2.10;;;;;;;;;;4194407;34;20094;-72
2021/11/20 03:44:42;;;;;;;2.97;2.05;;;;;;;;;;4194145;34;20101;-73
2021/11/20 03:47:08;;;;;;;2.05;1.90;;;;;;;;;;4218324;34;20112;-72
2021/11/20 03:49:33;;;;;;;2.30;1.98;;;;;;;;;;4205583;34;20117;-73
2021/11/20 03:51:59;;;;;;;3.33;2.28;;;;;;;;;;4218478;34;20129;-73
2021/11/20 03:54:25;;;;;;;2.08;1.87;;;;;;;;;;4218558;34;20132;-73
2021/11/20 03:56:51;;;;;;;2.10;1.90;;;;;;;;;;4194061;34;20100;-73
2021/11/20 03:59:18;;;;;;;3.20;1.87;;;;;;;;;;4205722;34;20200;-74
2021/11/20 04:01:44;;;;;;;3.28;2.08;;;;;;;;;;4205573;34;20176;-73
2021/11/20 04:04:09;;;;;;;2.00;1.83;;;;;;;;;;4194159;34;20116;-74
2021/11/20 04:06:35;;;;;;;2.37;1.90;;;;;;;;;;4218389;34;20097;-74
2021/11/20 04:09:01;;;;;;;2.03;1.83;;;;;;;;;;4205617;34;20232;-74
2021/11/20 04:11:32;;;;;;;2.80;2.50;;;;;;;;;;4205705;34;20518;-74
2021/11/20 04:13:58;;;;;;;3.25;2.55;;;;;;;;;;4194552;34;20176;-74
2021/11/20 04:16:25;;;;;;;2.42;2.20;;;;;;;;;;4218521;34;20116;-72
2021/11/20 04:18:51;;;;;;;2.53;2.28;;;;;;;;;;4193712;34;20121;-75
2021/11/20 04:21:17;;;;;;;3.40;2.53;;;;;;;;;;4205088;34;20120;-74
2021/11/20 04:23:45;;;;;;;2.47;2.15;;;;;;;;;;4194136;34;20476;-74
2021/11/20 04:26:13;;;;;;;3.05;2.28;;;;;;;;;;4218146;34;20204;-73
2021/11/20 04:28:39;;;;;;;3.10;2.40;;;;;;;;;;4205337;34;20177;-74
2021/11/20 04:31:05;;;;;;;2.42;2.20;;;;;;;;;;4205214;34;20153;-73
2021/11/20 04:33:31;;;;;;;2.45;2.20;;;;;;;;;;4205422;34;20109;-74
2021/11/20 04:35:57;;;;;;;2.53;2.30;;;;;;;;;;4218133;34;20184;-74
2021/11/20 04:38:23;;;;;;;2.55;2.35;;;;;;;;;;4205347;34;20924;-74
2021/11/20 04:40:49;;;;;;;3.30;2.25;;;;;;;;;;4205555;34;20097;-71
2021/11/20 04:43:15;;;;;;;2.53;2.33;;;;;;;;;;4205230;34;20197;-71
2021/11/20 04:45:41;;;;;;;2.90;2.47;;;;;;;;;;4217909;34;20116;-72
2021/11/20 04:48:08;;;;;;;2.62;2.40;;;;;;;;;;4218120;34;20201;-72
2021/11/20 04:50:34;;;;;;;2.65;2.45;;;;;;;;;;4193559;34;20102;-73
2021/11/20 04:53:01;;;;;;;2.55;2.25;;;;;;;;;;4194128;34;20085;-74
2021/11/20 04:55:27;;;;;;;2.60;2.22;;;;;;;;;;4182008;34;20514;-74
2021/11/20 04:57:52;;;;;;;2.87;2.60;;;;;;;;;;4217988;34;20217;-74
2021/11/20 05:00:20;;;;;;;4.20;3.10;;;;;;;;;;4193434;34;20134;-75
2021/11/20 05:02:46;;;;;;;3.03;2.30;;;;;;;;;;4217777;34;20127;-73
2021/11/20 05:05:12;;;;;;;2.65;2.45;;;;;;;;;;4193336;34;20552;-73
2021/11/20 05:07:38;;;;;;;2.90;2.60;;;;;;;;;;4217884;34;20237;-72
2021/11/20 05:10:05;;;;;;;3.00;2.60;;;;;;;;;;4204676;34;20153;-72
2021/11/20 05:12:30;;;;;;;3.22;2.92;;;;;;;;;;4205298;34;20121;-72
2021/11/20 05:14:56;;;;;;;3.40;3.10;;;;;;;;;;4204833;34;20617;-72
2021/11/20 05:17:22;;;;;;;3.08;2.78;;;;;;;;;;4193195;34;20182;-72
2021/11/20 05:19:48;;;;;;;3.00;2.70;;;;;;;;;;4193160;34;20136;-70
2021/11/20 05:22:14;;;;;;;3.22;2.62;;;;;;;;;;4204512;34;20144;-69
2021/11/20 05:24:40;;;;;;;3.15;2.85;;;;;;;;;;4217253;34;20137;-68
2021/11/20 05:27:06;;;;;;;3.47;3.17;;;;;;;;;;4217442;34;20113;-67
2021/11/20 05:29:44;;;;;;;3.40;3.10;;;;;;;;;;4204789;34;20189;-70
2021/11/20 05:32:10;;;;;;;3.35;3.05;;;;;;;;;;4205686;34;20529;-72
2021/11/20 05:34:36;;;;;;;3.40;3.05;;;;;;;;;;4218719;34;20200;-70
2021/11/20 05:37:03;;;;;;;3.17;2.87;;;;;;;;;;4206800;34;20515;-69
2021/11/20 05:39:29;;;;;;;3.35;3.05;;;;;;;;;;4206920;34;20109;-69
2021/11/20 05:41:55;;;;;;;3.35;2.60;;;;;;;;;;4195142;34;20121;-70
2021/11/20 05:44:21;;;;;;;3.72;3.35;;;;;;;;;;4206702;34;20157;-76
2021/11/20 05:46:47;;;;;;;3.90;3.50;;;;;;;;;;4219644;34;20127;-70
2021/11/20 05:49:12;;;;;;;4.18;3.78;;;;;;;;;;4219613;34;20327;-69
2021/11/20 05:51:38;;;;;;;3.62;3.28;;;;;;;;;;4219499;34;20150;-69
2021/11/20 05:54:04;;;;;;;4.60;4.10;;;;;;;;;;4219597;34;20124;-68
2021/11/20 05:56:31;;;;;;;3.95;3.55;;;;;;;;;;4219713;34;20094;-71
2021/11/20 05:58:56;;;;;;;6.62;3.08;;;;;;;;;;4206730;34;20133;-71
2021/11/20 06:01:23;;;;;;;4.25;3.53;;;;;;;;;;4194903;34;20453;-70
2021/11/20 06:03:49;;;;;;;4.10;3.70;;;;;;;;;;4194976;34;20120;-70
2021/11/20 06:06:16;;;;;;;4.18;3.65;;;;;;;;;;4219134;34;20120;-70
2021/11/20 06:08:42;;;;;;;4.45;3.60;;;;;;;;;;4219333;34;20617;-70
2021/11/20 06:11:08;;;;;;;3.83;3.28;;;;;;;;;;4219284;34;20138;-71
2021/11/20 06:13:34;;;;;;;4.20;3.75;;;;;;;;;;4219615;34;20109;-70
2021/11/20 06:16:00;;;;;;;4.85;4.05;;;;;;;;;;4219161;34;20105;-70
2021/11/20 06:18:26;;;;;;;3.90;3.55;;;;;;;;;;4219313;33;20113;-69
2021/11/20 06:20:51;;;;;;;5.32;4.30;;;;;;;;;;4206486;34;20119;-72
2021/11/20 06:23:18;;;;;;;4.22;3.83;;;;;;;;;;4219322;34;20132;-70
2021/11/20 06:25:44;;;;;;;14.05;6.03;;;;;;;;;;4206195;34;20465;-70
2021/11/20 06:28:10;;;;;;;7.25;5.70;;;;;;;;;;4194978;34;20125;-72
2021/11/20 06:30:36;;;;;;;5.43;4.93;;;;;;;;;;4205987;34;20121;-72
2021/11/20 06:33:02;;;;;;;5.00;4.47;;;;;;;;;;4219225;34;20113;-72
2021/11/20 06:35:29;;;;;;;4.50;4.10;;;;;;;;;;4219195;34;20118;-72
2021/11/20 06:37:55;;;;;;;4.28;3.85;;;;;;;;;;4219072;34;20600;-72
2021/11/20 06:40:24;;;;;;;6.78;5.80;;;;;;;;;;4206214;34;20117;-74
2021/11/20 06:42:50;;;;;;;9.80;7.55;;;;;;;;;;4206088;34;20120;-75
2021/11/20 06:45:20;;;;;;;7.57;6.53;;;;;;;;;;4208054;34;20518;-72
2021/11/20 06:47:47;;;;;;;8.35;6.65;;;;;;;;;;4219435;34;20220;-74
2021/11/20 06:50:14;;;;;;;9.82;7.57;;;;;;;;;;4194702;34;20125;-72
2021/11/20 06:52:40;;;;;;;8.07;6.65;;;;;;;;;;4206130;34;20438;-72
2021/11/20 06:55:07;;;;;;;6.35;5.40;;;;;;;;;;4218843;34;20118;-71
2021/11/20 07:00:26;;;;;;;6.82;6.12;;;;;;;;;;4206651;34;20136;-71
2021/11/20 07:03:02;;;;;;;5.47;4.97;;;;;;;;;;4196329;34;20113;-70
2021/11/20 07:05:30;;;;;;;5.97;5.37;;;;;;;;;;4205871;34;20106;-70
2021/11/20 07:07:56;;;;;;;6.25;5.60;;;;;;;;;;4206087;34;20128;-73
2021/11/20 07:10:23;;;;;;;6.60;5.85;;;;;;;;;;4206011;34;20109;-73
2021/11/20 07:12:53;;;;;;;6.40;5.80;;;;;;;;;;4218636;34;20109;-74
2021/11/20 07:15:19;;;;;;;6.78;5.70;;;;;;;;;;4206079;34;20128;-73
2021/11/20 07:17:45;;;;;;;6.95;6.25;;;;;;;;;;4194561;34;20117;-74
2021/11/20 07:20:11;;;;;;;7.97;7.22;;;;;;;;;;4205780;34;20113;-74
2021/11/20 07:22:37;;;;;;;7.28;6.57;;;;;;;;;;4205710;34;20422;-71
2021/11/20 07:25:03;;;;;;;7.22;6.53;;;;;;;;;;4205815;34;20204;-70
2021/11/20 07:27:33;;;;;;;8.65;7.80;;;;;;;;;;4218603;34;20105;-70
2021/11/20 07:29:59;;;;;;;7.60;6.90;;;;;;;;;;4218725;34;20188;-70
2021/11/20 07:32:27;;;;;;;6.60;5.93;;;;;;;;;;4205588;34;20113;-71
2021/11/20 07:34:56;;;;;;;7.97;5.55;;;;;;;;;;4194166;34;20192;-71
2021/11/20 07:37:22;;;;;;;7.07;5.12;;;;;;;;;;4218722;34;20097;-72
2021/11/20 07:39:48;;;;;;;6.05;5.45;;;;;;;;;;4219042;34;20132;-64
2021/11/20 07:42:14;;;;;;;6.25;5.40;;;;;;;;;;4218477;34;20120;-64
2021/11/20 07:44:40;;;;;;;6.65;6.05;;;;;;;;;;4218591;34;20204;-64
2021/11/20 07:47:06;;;;;;;6.78;5.72;;;;;;;;;;4218456;34;20112;-63
2021/11/20 07:49:32;;;;;;;5.90;5.28;;;;;;;;;;4206023;34;20185;-63
2021/11/20 07:51:58;;;;;;;6.82;5.70;;;;;;;;;;4218444;34;20536;-64
2021/11/20 07:54:24;;;;;;;6.10;5.50;;;;;;;;;;4218331;34;20129;-63
2021/11/20 07:56:50;;;;;;;6.18;5.12;;;;;;;;;;4217816;34;20206;-65
2021/11/20 07:59:16;;;;;;;7.10;5.60;;;;;;;;;;4218423;34;20125;-65
2021/11/20 08:01:42;;;;;;;7.30;5.43;;;;;;;;;;4218475;34;20132;-64
2021/11/20 08:04:08;;;;;;;6.70;5.78;;;;;;;;;;4205605;34;20140;-63
2021/11/20 08:06:35;;;;;;;7.70;6.90;;;;;;;;;;4217065;34;20114;-65
2021/11/20 08:09:03;;;;;;;8.05;6.82;;;;;;;;;;4218098;34;20201;-64
2021/11/20 08:11:33;;;;;;;8.40;7.20;;;;;;;;;;4218268;34;20093;-65
2021/11/20 08:13:59;;;;;;;8.18;7.22;;;;;;;;;;4205427;34;20128;-64
2021/11/20 08:16:26;;;;;;;7.95;7.10;;;;;;;;;;4218260;34;20121;-64
2021/11/20 08:18:52;;;;;;;11.07;8.20;;;;;;;;;;4218039;34;20188;-63
2021/11/20 08:21:18;;;;;;;9.45;8.35;;;;;;;;;;4218247;34;20108;-64
2021/11/20 08:23:44;;;;;;;10.50;7.75;;;;;;;;;;4218161;33;20193;-65
2021/11/20 08:26:09;;;;;;;8.73;7.80;;;;;;;;;;4218305;33;20195;-64
2021/11/20 08:28:36;;;;;;;9.00;8.00;;;;;;;;;;4218042;33;20556;-63
2021/11/20 08:31:03;;;;;;;8.65;7.75;;;;;;;;;;4217808;33;20648;-63
2021/11/20 08:33:29;;;;;;;8.35;6.45;;;;;;;;;;4216738;34;20124;-64
2021/11/20 08:35:55;;;;;;;8.05;7.10;;;;;;;;;;4218396;33;20473;-65
2021/11/20 08:38:21;;;;;;;9.23;8.07;;;;;;;;;;4218323;34;20175;-66
2021/11/20 08:40:47;;;;;;;8.20;7.40;;;;;;;;;;4216785;34;20101;-65
2021/11/20 08:43:13;;;;;;;10.48;6.95;;;;;;;;;;4217812;33;20132;-63
2021/11/20 08:45:43;;;;;;;8.82;7.75;;;;;;;;;;4216925;33;20148;-64
2021/11/20 08:48:11;;;;;;;11.43;8.52;;;;;;;;;;4217088;33;20119;-66
2021/11/20 08:50:39;;;;;;;8.95;6.87;;;;;;;;;;4218093;33;20129;-65
2021/11/20 08:53:05;;;;;;;9.00;8.05;;;;;;;;;;4216374;34;20546;-66
2021/11/20 08:55:31;;;;;;;11.65;8.60;;;;;;;;;;4217907;33;20110;-67
2021/11/20 08:57:57;;;;;;;9.23;7.25;;;;;;;;;;4217827;33;20129;-69
2021/11/20 09:00:28;;;;;;;9.07;7.85;;;;;;;;;;4217902;33;20116;-70
2021/11/20 09:02:59;;;;;;;11.43;9.50;;;;;;;;;;4217878;33;20113;-65
2021/11/20 09:05:33;;;;;;;11.12;9.82;;;;;;;;;;4217761;33;20170;-66
2021/11/20 09:08:04;;;;;;;13.77;9.90;;;;;;;;;;4217733;33;20105;-68
2021/11/20 09:10:36;;;;;;;11.18;9.88;;;;;;;;;;4219771;33;20513;-69
2021/11/20 09:13:13;;;;;;;10.68;9.57;;;;;;;;;;4219792;33;20113;-67
2021/11/20 09:15:44;;;;;;;13.43;10.98;;;;;;;;;;4219925;33;20469;-67
2021/11/20 09:18:10;;;;;;;10.88;9.00;;;;;;;;;;4219755;33;20188;-67
2021/11/20 09:20:36;;;;;;;12.48;9.68;;;;;;;;;;4207253;34;20112;-67
2021/11/20 09:23:03;;;;;;;12.27;9.77;;;;;;;;;;4219552;33;20462;-68
2021/11/20 09:25:29;;;;;;;13.25;11.48;;;;;;;;;;4219889;34;20102;-69
2021/11/20 09:27:55;;;;;;;15.70;12.00;;;;;;;;;;4219476;34;20089;-69
2021/11/20 09:30:32;;;;;;;11.85;10.48;;;;;;;;;;4219776;34;20113;-67
2021/11/20 09:32:58;;;;;;;15.35;12.73;;;;;;;;;;4206936;34;20192;-68
2021/11/20 09:35:24;;;;;;;15.55;11.12;;;;;;;;;;4219743;34;20473;-68
2021/11/20 09:37:50;;;;;;;14.70;12.23;;;;;;;;;;4219306;34;20113;-68
2021/11/20 09:40:17;;;;;;;16.80;12.77;;;;;;;;;;4219990;34;20124;-69
2021/11/20 09:42:44;;;;;;;17.12;14.02;;;;;;;;;;4219565;34;20117;-68
2021/11/20 09:45:16;;;;;;;15.90;14.20;;;;;;;;;;4219896;34;20101;-68
2021/11/20 09:47:44;;;;;;;16.50;12.63;;;;;;;;;;4206485;34;20126;-68
2021/11/20 09:50:16;;;;;;;16.35;13.75;;;;;;;;;;4206532;34;20105;-69
2021/11/20 09:52:42;;;;;;;19.62;15.10;;;;;;;;;;4195371;34;20098;-69
2021/11/20 09:55:11;;;;;;;18.58;15.75;;;;;;;;;;4219509;34;20508;-70
2021/11/20 09:57:52;;;;;;;17.30;14.77;;;;;;;;;;4219441;34;20628;-71
2021/11/20 10:00:39;;;;;;;17.33;15.38;;;;;;;;;;4206594;34;20103;-70
2021/11/20 10:03:08;;;;;;;17.12;13.57;;;;;;;;;;4219693;34;20105;-71
2021/11/20 10:05:43;;;;;;;15.50;12.70;;;;;;;;;;4195375;34;20128;-70
2021/11/20 10:08:30;;;;;;;17.50;14.68;;;;;;;;;;4207278;34;20121;-70
2021/11/20 10:10:59;;;;;;;17.65;13.62;;;;;;;;;;4219409;34;20136;-70
2021/11/20 10:13:30;;;;;;;16.05;13.82;;;;;;;;;;4219273;34;20947;-70
2021/11/20 10:16:01;;;;;;;20.83;14.48;;;;;;;;;;4206344;34;20098;-69
2021/11/20 10:18:33;;;;;;;19.55;16.12;;;;;;;;;;4219098;34;20196;-70
2021/11/20 10:21:24;;;;;;;23.35;17.85;;;;;;;;;;4217616;34;20121;-70
2021/11/20 10:24:07;;;;;;;17.33;15.48;;;;;;;;;;4219167;34;20450;-68
2021/11/20 10:26:46;;;;;;;17.02;14.15;;;;;;;;;;4194750;34;20213;-68
2021/11/20 10:29:39;;;;;;;13.40;11.98;;;;;;;;;;4219293;34;20517;-69
2021/11/20 10:32:08;;;;;;;14.00;11.82;;;;;;;;;;4207518;34;20219;-67
2021/11/20 10:34:48;;;;;;;14.13;10.02;;;;;;;;;;4219565;34;20117;-67
2021/11/20 10:37:36;;;;;;;13.52;10.23;;;;;;;;;;4206366;34;20108;-67
2021/11/20 10:40:22;;;;;;;15.20;12.60;;;;;;;;;;4219117;34;20123;-67
2021/11/20 10:43:25;;;;;;;14.23;11.20;;;;;;;;;;4206320;34;20125;-69
2021/11/20 10:46:12;;;;;;;17.02;12.05;;;;;;;;;;4216646;34;20133;-66
2021/11/20 10:48:40;;;;;;;20.73;13.70;;;;;;;;;;4179063;34;20209;-66
2021/11/20 10:51:52;;;;;;;15.80;13.55;;;;;;;;;;4194349;34;20536;-68
2021/11/20 10:54:37;;;;;;;15.43;13.07;;;;;;;;;;4192258;33;20800;-67
2021/11/20 10:57:19;;;;;;;13.53;11.37;;;;;;;;;;4223358;33;20134;-68
2021/11/20 10:59:53;;;;;;;13.55;10.93;;;;;;;;;;4220398;33;20271;-67
2021/11/20 11:02:25;;;;;;;16.13;12.43;;;;;;;;;;4222167;33;20213;-68
2021/11/20 11:05:29;;;;;;;16.30;13.60;;;;;;;;;;4205830;34;20192;-67
2021/11/20 11:08:27;;;;;;;18.60;14.63;;;;;;;;;;4197712;34;20120;-68
2021/11/20 11:11:12;;;;;;;17.02;13.15;;;;;;;;;;4206632;34;20104;-68
2021/11/20 11:14:02;;;;;;;14.90;12.32;;;;;;;;;;4218365;34;20106;-68
2021/11/20 11:16:44;;;;;;;14.45;11.98;;;;;;;;;;4218347;34;20145;-70
2021/11/20 11:19:38;;;;;;;13.65;11.65;;;;;;;;;;4205723;34;20121;-69
2021/11/20 11:22:07;;;;;;;14.48;12.02;;;;;;;;;;4217940;34;20189;-71
2021/11/20 11:24:44;;;;;;;19.37;13.18;;;;;;;;;;4218391;34;20109;-63
2021/11/20 11:27:48;;;;;;;14.23;12.73;;;;;;;;;;4205292;34;20201;-80
2021/11/20 11:30:44;;;;;;;15.35;13.27;;;;;;;;;;4218460;34;20181;-76
2021/11/20 11:33:09;;;;;;;15.63;13.00;;;;;;;;;;4202235;34;20117;-74
2021/11/20 11:35:52;;;;;;;15.05;10.93;;;;;;;;;;4218441;34;20129;-73
2021/11/20 11:38:39;;;;;;;15.20;12.35;;;;;;;;;;4194712;34;20106;-74
2021/11/20 11:41:17;;;;;;;16.42;12.57;;;;;;;;;;4218344;34;20102;-72
2021/11/20 11:44:04;;;;;;;16.20;13.52;;;;;;;;;;4218568;34;20442;-71
2021/11/20 11:47:12;;;;;;;16.25;14.18;;;;;;;;;;4206864;34;20454;-72
2021/11/20 11:49:52;;;;;;;14.60;11.45;;;;;;;;;;4217661;34;20553;-73
2021/11/20 11:52:38;;;;;;;15.77;12.02;;;;;;;;;;4204692;34;20469;-77
2021/11/20 11:55:43;;;;;;;15.43;13.43;;;;;;;;;;4218448;34;20121;-74
2021/11/20 11:58:27;;;;;;;18.10;13.02;;;;;;;;;;4208875;34;20113;-73
2021/11/20 12:00:53;;;;;;;13.77;10.88;;;;;;;;;;4205901;34;20130;-75
2021/11/20 12:03:25;;;;;;;16.48;11.68;;;;;;;;;;4218415;34;20093;-74
2021/11/20 12:06:03;;;;;;;13.55;11.32;;;;;;;;;;4217746;34;20491;-74
2021/11/20 12:08:29;;;;;;;12.93;10.98;;;;;;;;;;4218163;34;20097;-73
2021/11/20 12:11:13;;;;;;;13.95;11.50;;;;;;;;;;4217738;34;20104;-74
2021/11/20 12:13:44;;;;;;;14.65;11.23;;;;;;;;;;4205157;34;20104;-74
2021/11/20 12:16:33;;;;;;;14.02;11.25;;;;;;;;;;4195556;34;20109;-74
2021/11/20 12:19:26;;;;;;;13.38;10.27;;;;;;;;;;4192077;34;20542;-73
2021/11/20 12:21:58;;;;;;;13.30;10.73;;;;;;;;;;4210703;34;20126;-73
2021/11/20 12:25:05;;;;;;;10.45;8.38;;;;;;;;;;4205915;34;20133;-75
2021/11/20 12:27:38;;;;;;;15.27;11.50;;;;;;;;;;4185811;34;20121;-74
2021/11/20 12:30:29;;;;;;;13.62;10.98;;;;;;;;;;4213750;34;20634;-74
2021/11/20 12:33:14;;;;;;;13.85;10.40;;;;;;;;;;4205191;34;20116;-74
2021/11/20 12:36:10;;;;;;;14.10;10.98;;;;;;;;;;4218296;34;20116;-72
2021/11/20 12:38:42;;;;;;;15.38;12.23;;;;;;;;;;4193324;34;20220;-72
2021/11/20 12:41:43;;;;;;;14.45;10.77;;;;;;;;;;4205020;34;20129;-74
2021/11/20 12:44:19;;;;;;;11.98;10.77;;;;;;;;;;4206633;34;20120;-72
2021/11/20 12:47:10;;;;;;;13.25;10.88;;;;;;;;;;4195488;34;20086;-72
2021/11/20 12:50:36;;;;;;;12.98;11.57;;;;;;;;;;4186126;34;20101;-68
2021/11/20 12:53:08;;;;;;;13.50;10.20;;;;;;;;;;4183457;34;20552;-68
2021/11/20 12:55:37;;;;;;;13.35;10.27;;;;;;;;;;4184671;34;20140;-67
2021/11/20 12:58:13;;;;;;;14.10;11.50;;;;;;;;;;4182961;34;20486;-67
2021/11/20 13:00:39;;;;;;;13.45;11.80;;;;;;;;;;4193034;34;20501;-69
2021/11/20 13:03:36;;;;;;;14.25;12.85;;;;;;;;;;4207135;34;20124;-72
2021/11/20 13:06:19;;;;;;;10.82;9.73;;;;;;;;;;4213051;34;20442;-71
2021/11/20 13:08:58;;;;;;;10.13;8.90;;;;;;;;;;4207280;34;20129;-68
2021/11/20 13:11:35;;;;;;;11.68;9.65;;;;;;;;;;4185006;34;20229;-69
2021/11/20 13:14:04;;;;;;;11.20;9.80;;;;;;;;;;4195538;34;20815;-73
2021/11/20 13:16:30;;;;;;;10.50;9.30;;;;;;;;;;4206858;34;20137;-73
2021/11/20 13:18:58;;;;;;;10.02;8.90;;;;;;;;;;4219187;34;21077;-72
2021/11/20 13:21:53;;;;;;;13.98;8.77;;;;;;;;;;4219720;34;20208;-72
2021/11/20 13:24:20;;;;;;;10.93;9.00;;;;;;;;;;4219500;34;20147;-72
2021/11/20 13:27:02;;;;;;;10.82;9.73;;;;;;;;;;4219560;34;20108;-73
2021/11/20 13:29:39;;;;;;;11.12;9.25;;;;;;;;;;4219257;34;20117;-72
2021/11/20 13:32:08;;;;;;;9.95;8.32;;;;;;;;;;4206758;34;20548;-73
2021/11/20 13:34:34;;;;;;;10.10;9.05;;;;;;;;;;4194780;34;20113;-73
2021/11/20 13:36:59;;;;;;;11.43;9.57;;;;;;;;;;4195739;34;20197;-82
2021/11/20 13:39:25;;;;;;;10.80;8.90;;;;;;;;;;4192682;34;20117;-81
2021/11/20 13:41:56;;;;;;;11.20;9.98;;;;;;;;;;4206660;34;20141;-81
2021/11/20 13:44:22;;;;;;;10.25;8.95;;;;;;;;;;4206844;34;20131;-81
2021/11/20 13:46:52;;;;;;;12.10;10.32;;;;;;;;;;4207681;34;20578;-82
2021/11/20 13:49:18;;;;;;;12.82;10.77;;;;;;;;;;4214274;34;20129;-80
2021/11/20 13:51:44;;;;;;;11.88;10.05;;;;;;;;;;4206384;34;20656;-80
2021/11/20 13:54:12;;;;;;;11.38;9.75;;;;;;;;;;4204017;34;20134;-82
2021/11/20 13:56:40;;;;;;;11.18;9.85;;;;;;;;;;4214034;34;20762;-81
2021/11/20 13:59:17;;;;;;;10.75;9.57;;;;;;;;;;4219647;34;20477;-80
2021/11/20 14:01:53;;;;;;;12.13;10.55;;;;;;;;;;4219109;33;20113;-81
2021/11/20 14:04:24;;;;;;;10.38;9.20;;;;;;;;;;4206969;34;20144;-81
2021/11/20 14:07:04;;;;;;;9.85;8.85;;;;;;;;;;4211353;34;20454;-81
2021/11/20 14:09:30;;;;;;;9.85;8.48;;;;;;;;;;4215531;34;20106;-80
2021/11/20 14:12:12;;;;;;;9.80;8.70;;;;;;;;;;4198801;34;20122;-80
2021/11/20 14:14:38;;;;;;;8.93;7.75;;;;;;;;;;4209996;34;20461;-79
2021/11/20 14:17:16;;;;;;;9.25;8.07;;;;;;;;;;4196297;34;20177;-80
2021/11/20 14:19:42;;;;;;;8.70;7.37;;;;;;;;;;4206586;34;20110;-78
2021/11/20 14:22:11;;;;;;;9.40;7.82;;;;;;;;;;4204715;34;20106;-80
2021/11/20 14:24:39;;;;;;;10.60;9.15;;;;;;;;;;4206241;34;20109;-79
2021/11/20 14:27:05;;;;;;;8.93;6.50;;;;;;;;;;4219225;34;20474;-80
2021/11/20 14:29:36;;;;;;;9.27;7.18;;;;;;;;;;4206470;34;20138;-79
2021/11/20 14:32:06;;;;;;;8.32;7.53;;;;;;;;;;4219339;34;20112;-81
2021/11/20 14:34:41;;;;;;;9.02;7.65;;;;;;;;;;4195591;34;20435;-79
2021/11/20 14:37:18;;;;;;;8.85;7.95;;;;;;;;;;4216987;34;20569;-79
2021/11/20 14:39:48;;;;;;;9.07;7.43;;;;;;;;;;4219041;34;20197;-79
2021/11/20 14:42:15;;;;;;;7.87;7.15;;;;;;;;;;4218826;34;20129;-78
2021/11/20 14:44:41;;;;;;;10.70;7.40;;;;;;;;;;4194651;34;20098;-79
2021/11/20 14:47:09;;;;;;;8.95;7.93;;;;;;;;;;4218342;34;20085;-79
2021/11/20 14:49:36;;;;;;;9.10;8.18;;;;;;;;;;4203183;34;20118;-79
2021/11/20 14:52:23;;;;;;;8.88;7.90;;;;;;;;;;4182390;34;20133;-79
2021/11/20 14:55:07;;;;;;;8.32;6.62;;;;;;;;;;4194487;34;20446;-80
2021/11/20 14:57:34;;;;;;;9.20;8.27;;;;;;;;;;4204113;34;20186;-81
2021/11/20 15:00:00;;;;;;;9.43;8.38;;;;;;;;;;4212536;34;20129;-80
2021/11/20 15:02:26;;;;;;;8.40;7.05;;;;;;;;;;4204999;34;20101;-79
2021/11/20 15:04:53;;;;;;;7.28;6.57;;;;;;;;;;4196023;34;20499;-80
2021/11/20 15:07:19;;;;;;;7.45;6.75;;;;;;;;;;4191932;34;20111;-79
2021/11/20 15:09:45;;;;;;;7.95;6.95;;;;;;;;;;4185225;33;20114;-78
2021/11/20 15:12:12;;;;;;;6.50;5.90;;;;;;;;;;4177501;34;20225;-79
2021/11/20 15:14:38;;;;;;;8.13;6.20;;;;;;;;;;4220630;33;20212;-79
2021/11/20 15:17:04;;;;;;;7.15;6.37;;;;;;;;;;4197392;33;20195;-76
2021/11/20 15:19:34;;;;;;;6.75;6.15;;;;;;;;;;4208866;34;20124;-74
2021/11/20 15:22:00;;;;;;;5.78;5.28;;;;;;;;;;4218381;34;20130;-75